Time;durP1;ratioP1;P1;durP2;ratioP2;P2;SDS_P1;SDS_P2;PMS_P1;PMS_P2;Temp;Humidity;BMP_temperature;BMP_pressure;BME280_temperature;BME280_humidity;BME280_pressure;Samples;Min_cycle;Max_cycle;Signal;HPM_P1;HPM_P2
2023/07/25 00:02:23;;;;;;;54.80;51.45;;;16.10;99.90;;;;;;5106746;28;20085;-73
2023/07/25 00:04:48;;;;;;;58.83;55.25;;;16.00;99.90;;;;;;5107399;28;20023;-72
2023/07/25 00:07:15;;;;;;;59.53;56.58;;;16.00;99.90;;;;;;5087975;28;20057;-73
2023/07/25 00:09:41;;;;;;;62.70;59.50;;;16.00;99.90;;;;;;5105942;28;20031;-73
2023/07/25 00:12:07;;;;;;;70.95;66.93;;;16.00;99.90;;;;;;5090670;28;20401;-73
2023/07/25 00:14:34;;;;;;;61.22;57.72;;;16.00;99.90;;;;;;5107814;28;20038;-72
2023/07/25 00:17:00;;;;;;;57.35;53.85;;;16.10;99.90;;;;;;5104435;28;20051;-72
2023/07/25 00:19:26;;;;;;;56.97;53.78;;;16.00;99.90;;;;;;5105635;28;20031;-73
2023/07/25 00:21:55;;;;;;;57.47;54.33;;;15.90;99.90;;;;;;5103256;28;20490;-73
2023/07/25 00:24:20;;;;;;;58.20;54.95;;;16.00;99.90;;;;;;5101355;28;20031;-73
2023/07/25 00:26:46;;;;;;;62.42;58.90;;;16.00;99.90;;;;;;5088168;28;20032;-73
2023/07/25 00:29:12;;;;;;;64.57;61.35;;;15.90;99.90;;;;;;5107628;28;20031;-73
2023/07/25 00:31:37;;;;;;;58.38;54.20;;;15.90;99.90;;;;;;5106144;28;20078;-73
2023/07/25 00:34:04;;;;;;;60.92;56.47;;;15.90;99.90;;;;;;5104816;27;20072;-73
2023/07/25 00:36:30;;;;;;;59.95;56.17;;;15.80;99.90;;;;;;5107826;28;20773;-73
2023/07/25 00:38:55;;;;;;;55.47;52.15;;;15.90;99.90;;;;;;5107357;28;20039;-73
2023/07/25 00:41:21;;;;;;;57.90;53.17;;;15.80;99.90;;;;;;5106928;28;20106;-72
2023/07/25 00:43:47;;;;;;;58.33;54.33;;;15.80;99.90;;;;;;5106554;28;20038;-73
2023/07/25 00:46:12;;;;;;;54.90;51.58;;;15.70;99.90;;;;;;5093666;28;20043;-73
2023/07/25 00:48:38;;;;;;;56.05;52.53;;;15.70;99.90;;;;;;5107705;28;20035;-72
2023/07/25 00:51:05;;;;;;;55.17;51.42;;;15.70;99.90;;;;;;5108240;28;20553;-73
2023/07/25 00:53:30;;;;;;;60.10;56.63;;;15.60;99.90;;;;;;5090015;28;20126;-72
2023/07/25 00:55:56;;;;;;;65.13;61.58;;;15.70;99.90;;;;;;5106075;28;20110;-72
2023/07/25 00:58:22;;;;;;;59.47;55.92;;;15.70;99.90;;;;;;5104621;28;20067;-73
2023/07/25 01:00:48;;;;;;;61.25;57.97;;;15.80;99.90;;;;;;5089131;28;20442;-73
2023/07/25 01:03:14;;;;;;;58.70;55.47;;;15.80;99.90;;;;;;5105837;28;20020;-73
2023/07/25 01:05:43;;;;;;;62.72;59.25;;;15.80;99.90;;;;;;5105062;28;20035;-73
2023/07/25 01:08:09;;;;;;;55.05;51.78;;;15.70;99.90;;;;;;5105374;28;20031;-72
2023/07/25 01:10:38;;;;;;;57.60;54.42;;;15.80;99.90;;;;;;5106152;28;20039;-73
2023/07/25 01:13:05;;;;;;;58.67;55.10;;;15.70;99.90;;;;;;5103170;28;20102;-73
2023/07/25 01:15:31;;;;;;;55.20;52.30;;;15.70;99.90;;;;;;5103775;28;20105;-72
2023/07/25 01:17:57;;;;;;;58.88;55.83;;;15.80;99.90;;;;;;5107018;28;20024;-73
2023/07/25 01:20:24;;;;;;;62.67;58.83;;;15.80;99.90;;;;;;5109999;27;20035;-73
2023/07/25 01:22:50;;;;;;;55.50;52.70;;;15.80;99.90;;;;;;5104260;28;20035;-73
2023/07/25 01:25:16;;;;;;;56.40;53.50;;;15.80;99.90;;;;;;5087933;28;20418;-73
2023/07/25 01:27:42;;;;;;;57.13;53.75;;;15.80;99.90;;;;;;5087956;28;20028;-73
2023/07/25 01:30:08;;;;;;;56.15;53.30;;;15.80;99.90;;;;;;5105206;28;20488;-72
2023/07/25 01:32:34;;;;;;;51.15;48.38;;;15.80;99.90;;;;;;5105636;28;20511;-72
2023/07/25 01:34:59;;;;;;;61.35;58.25;;;15.80;99.90;;;;;;5102543;28;20028;-72
2023/07/25 01:37:25;;;;;;;61.58;57.72;;;15.90;99.90;;;;;;5073441;28;20062;-72
2023/07/25 01:39:50;;;;;;;58.17;55.28;;;16.80;99.90;;;;;;5108120;28;20042;-73
2023/07/25 01:42:16;;;;;;;65.45;61.75;;;16.80;99.90;;;;;;5105702;28;20031;-73
2023/07/25 01:44:42;;;;;;;66.30;63.00;;;16.80;99.90;;;;;;5104268;28;20036;-73
2023/07/25 01:47:07;;;;;;;58.00;54.72;;;16.90;99.90;;;;;;5105128;28;20035;-73
2023/07/25 01:49:33;;;;;;;62.90;60.05;;;16.80;99.90;;;;;;5106441;28;20036;-73
2023/07/25 01:51:59;;;;;;;56.50;53.58;;;16.80;99.90;;;;;;5100675;28;20114;-73
2023/07/25 01:54:25;;;;;;;61.28;58.38;;;16.80;99.90;;;;;;5104956;28;20035;-73
2023/07/25 01:56:50;;;;;;;57.92;55.08;;;16.80;99.90;;;;;;5102141;28;20036;-73
2023/07/25 01:59:17;;;;;;;52.13;49.60;;;16.80;99.90;;;;;;5102655;28;20394;-72
2023/07/25 02:01:42;;;;;;;52.95;50.25;;;16.80;99.90;;;;;;5105028;28;20031;-73
2023/07/25 02:04:08;;;;;;;53.33;50.63;;;16.80;99.90;;;;;;5099019;28;20032;-72
2023/07/25 02:06:33;;;;;;;58.15;55.20;;;16.70;99.90;;;;;;5107123;28;20028;-72
2023/07/25 02:08:59;;;;;;;63.70;60.80;;;16.60;99.90;;;;;;5103747;28;20474;-72
2023/07/25 02:11:25;;;;;;;78.30;74.60;;;16.60;99.90;;;;;;5106896;28;20486;-72
2023/07/25 02:13:50;;;;;;;51.78;49.05;;;16.60;99.90;;;;;;5087312;28;20468;-73
2023/07/25 02:16:16;;;;;;;53.75;51.22;;;16.70;99.90;;;;;;5089815;28;20032;-72
2023/07/25 02:18:42;;;;;;;44.75;42.42;;;16.60;99.90;;;;;;5103859;28;20086;-72
2023/07/25 02:21:07;;;;;;;51.13;48.30;;;16.60;99.90;;;;;;5103687;28;20019;-73
2023/07/25 02:23:33;;;;;;;56.95;54.20;;;16.60;99.90;;;;;;5104475;28;20027;-73
2023/07/25 02:25:59;;;;;;;49.47;46.78;;;16.50;99.90;;;;;;5103967;28;20012;-73
2023/07/25 02:28:24;;;;;;;52.08;49.47;;;16.50;99.90;;;;;;5103298;28;20050;-73
2023/07/25 02:30:50;;;;;;;56.42;53.42;;;16.50;99.90;;;;;;5104750;28;20392;-73
2023/07/25 02:33:16;;;;;;;47.50;44.88;;;16.60;99.90;;;;;;5107232;28;20028;-73
2023/07/25 02:35:41;;;;;;;46.88;44.55;;;16.60;99.90;;;;;;5104339;28;20027;-73
2023/07/25 02:38:08;;;;;;;49.35;46.63;;;16.60;99.90;;;;;;5104486;28;20513;-73
2023/07/25 02:40:34;;;;;;;46.28;43.97;;;16.60;99.90;;;;;;5107960;28;20032;-73
2023/07/25 02:43:02;;;;;;;47.05;44.45;;;16.60;99.90;;;;;;5105068;28;20042;-72
2023/07/25 02:45:28;;;;;;;44.72;42.55;;;16.50;99.90;;;;;;5107076;28;20038;-73
2023/07/25 02:47:53;;;;;;;44.95;42.75;;;16.60;99.90;;;;;;5087498;28;20024;-73
2023/07/25 02:50:19;;;;;;;49.53;47.13;;;16.60;99.90;;;;;;5106686;28;20089;-73
2023/07/25 02:52:45;;;;;;;50.72;47.67;;;16.60;99.90;;;;;;5105753;28;20081;-73
2023/07/25 02:55:10;;;;;;;47.42;45.13;;;16.60;99.90;;;;;;5085884;28;20035;-72
2023/07/25 02:57:36;;;;;;;46.13;43.90;;;16.50;99.90;;;;;;5107314;28;20682;-73
2023/07/25 03:00:02;;;;;;;45.65;43.58;;;16.40;99.90;;;;;;5106326;28;20023;-72
2023/07/25 03:02:28;;;;;;;46.35;44.30;;;16.40;99.90;;;;;;5108820;28;20031;-72
2023/07/25 03:04:54;;;;;;;48.42;45.78;;;16.40;99.90;;;;;;5107182;28;20036;-73
2023/07/25 03:07:19;;;;;;;44.75;42.13;;;16.40;99.90;;;;;;5108811;28;20042;-73
2023/07/25 03:09:45;;;;;;;50.88;48.30;;;16.50;99.90;;;;;;5106914;28;20051;-72
2023/07/25 03:12:11;;;;;;;43.25;41.05;;;16.40;99.90;;;;;;5105608;28;20043;-73
2023/07/25 03:14:36;;;;;;;42.50;40.38;;;16.20;99.90;;;;;;5107256;28;20046;-73
2023/07/25 03:17:02;;;;;;;43.08;41.03;;;16.30;99.90;;;;;;5113785;27;20503;-73
2023/07/25 03:19:28;;;;;;;44.60;42.33;;;16.30;99.90;;;;;;5110814;27;20035;-72
2023/07/25 03:21:53;;;;;;;43.80;41.85;;;16.30;99.90;;;;;;5108286;28;20027;-73
2023/07/25 03:24:19;;;;;;;49.13;46.63;;;16.20;99.90;;;;;;5109898;28;20031;-72
2023/07/25 03:26:45;;;;;;;45.22;43.15;;;16.30;99.90;;;;;;5108529;28;20032;-72
2023/07/25 03:29:10;;;;;;;44.42;42.17;;;16.20;99.90;;;;;;5111677;28;20035;-73
2023/07/25 03:31:36;;;;;;;44.15;42.17;;;16.30;99.90;;;;;;5110775;28;20163;-72
2023/07/25 03:34:02;;;;;;;50.92;48.58;;;16.20;99.90;;;;;;5109257;28;20039;-72
2023/07/25 03:36:27;;;;;;;46.47;44.10;;;16.30;99.90;;;;;;5108402;28;20047;-72
2023/07/25 03:38:53;;;;;;;46.70;44.15;;;16.30;99.90;;;;;;5105671;28;20044;-73
2023/07/25 03:41:19;;;;;;;44.63;42.40;;;16.20;99.90;;;;;;5104785;28;20046;-72
2023/07/25 03:43:44;;;;;;;46.33;43.92;;;16.10;99.90;;;;;;5117790;28;20032;-73
2023/07/25 03:46:10;;;;;;;39.28;37.47;;;16.20;99.90;;;;;;5118137;28;20088;-73
2023/07/25 03:48:36;;;;;;;42.90;40.72;;;16.10;99.90;;;;;;5107957;28;20634;-73
2023/07/25 03:51:01;;;;;;;42.63;40.55;;;16.10;99.90;;;;;;5088268;28;20062;-73
2023/07/25 03:53:27;;;;;;;42.65;40.45;;;16.20;99.90;;;;;;5105440;28;20035;-72
2023/07/25 03:55:53;;;;;;;42.90;40.80;;;16.20;99.90;;;;;;5109627;28;20102;-72
2023/07/25 03:58:19;;;;;;;40.60;38.63;;;16.20;99.90;;;;;;5107010;28;20164;-73
2023/07/25 04:00:44;;;;;;;45.53;43.35;;;16.20;99.90;;;;;;5104915;28;20115;-73
2023/07/25 04:03:10;;;;;;;41.58;39.33;;;16.10;99.90;;;;;;5105576;28;20031;-73
2023/07/25 04:05:35;;;;;;;43.03;40.63;;;16.10;99.90;;;;;;5088661;28;20035;-73
2023/07/25 04:08:01;;;;;;;41.83;39.55;;;16.10;99.90;;;;;;5105274;28;20031;-73
2023/07/25 04:10:27;;;;;;;43.35;41.20;;;16.10;99.90;;;;;;5103207;28;20035;-72
2023/07/25 04:12:52;;;;;;;41.72;39.63;;;16.10;99.90;;;;;;5106398;28;20095;-73
2023/07/25 04:15:18;;;;;;;40.95;39.15;;;16.10;99.90;;;;;;5105302;28;20036;-73
2023/07/25 04:17:44;;;;;;;42.88;40.72;;;16.00;99.90;;;;;;5106692;28;20028;-73
2023/07/25 04:20:10;;;;;;;42.08;39.75;;;16.00;99.90;;;;;;5103652;28;20493;-73
2023/07/25 04:22:37;;;;;;;42.13;40.13;;;16.00;99.90;;;;;;5107328;28;20034;-72
2023/07/25 04:25:03;;;;;;;41.53;39.53;;;16.10;99.90;;;;;;5106362;28;20036;-73
2023/07/25 04:27:31;;;;;;;39.75;37.95;;;16.00;99.90;;;;;;5102524;27;20032;-72
2023/07/25 04:29:57;;;;;;;42.40;40.30;;;15.90;99.90;;;;;;5088322;27;20040;-72
2023/07/25 04:32:22;;;;;;;42.10;39.88;;;16.00;99.90;;;;;;5105279;28;20135;-73
2023/07/25 04:34:48;;;;;;;49.75;46.42;;;16.00;99.90;;;;;;5085829;28;20032;-73
2023/07/25 04:37:14;;;;;;;45.90;43.42;;;15.90;99.90;;;;;;5086097;28;20107;-73
2023/07/25 04:39:39;;;;;;;41.83;39.67;;;15.80;99.90;;;;;;5103770;28;20043;-73
2023/07/25 04:42:05;;;;;;;40.13;37.92;;;15.80;99.90;;;;;;5108142;28;20027;-73
2023/07/25 04:44:31;;;;;;;40.10;37.92;;;15.80;99.90;;;;;;5102946;28;20024;-80
2023/07/25 04:46:56;;;;;;;43.40;40.78;;;15.80;99.90;;;;;;5103809;28;20481;-81
2023/07/25 04:49:22;;;;;;;41.00;39.03;;;15.70;99.90;;;;;;5100708;28;20071;-79
2023/07/25 04:51:48;;;;;;;40.65;38.50;;;15.70;99.90;;;;;;5106768;28;20080;-79
2023/07/25 04:54:14;;;;;;;39.65;37.53;;;15.70;99.90;;;;;;5090048;28;20063;-78
2023/07/25 04:56:41;;;;;;;39.65;37.53;;;15.60;99.90;;;;;;5103879;28;20172;-80
2023/07/25 04:59:07;;;;;;;39.55;37.40;;;15.70;99.90;;;;;;5106979;28;20127;-81
2023/07/25 05:01:33;;;;;;;39.35;37.35;;;15.60;99.90;;;;;;5091755;28;20024;-78
2023/07/25 05:03:58;;;;;;;41.92;39.58;;;15.60;99.90;;;;;;5102043;28;20391;-79
2023/07/25 05:06:24;;;;;;;40.20;37.85;;;15.50;99.90;;;;;;5089448;28;20108;-81
2023/07/25 05:08:50;;;;;;;39.85;37.67;;;15.40;99.90;;;;;;5087266;28;20042;-78
2023/07/25 05:11:15;;;;;;;38.78;36.28;;;15.40;99.90;;;;;;5104356;28;20023;-77
2023/07/25 05:13:41;;;;;;;39.22;36.95;;;15.40;99.90;;;;;;5103846;28;20378;-78
2023/07/25 05:16:07;;;;;;;39.65;37.03;;;15.30;99.90;;;;;;5087220;28;20035;-78
2023/07/25 05:18:32;;;;;;;39.38;36.78;;;15.30;99.90;;;;;;5100511;28;20036;-78
2023/07/25 05:20:58;;;;;;;44.20;42.08;;;15.30;99.90;;;;;;5107142;28;20045;-80
2023/07/25 05:23:23;;;;;;;39.50;37.17;;;15.30;99.90;;;;;;5087574;28;20039;-78
2023/07/25 05:25:49;;;;;;;35.97;33.97;;;15.20;99.90;;;;;;5088862;28;20032;-78
2023/07/25 05:28:18;;;;;;;42.20;39.83;;;15.10;99.90;;;;;;5086803;28;20081;-78
2023/07/25 05:30:44;;;;;;;36.10;33.72;;;15.10;99.90;;;;;;5106958;27;20043;-82
2023/07/25 05:33:09;;;;;;;33.83;31.92;;;15.10;99.90;;;;;;5089020;28;20063;-80
2023/07/25 05:35:35;;;;;;;37.22;35.42;;;15.10;99.90;;;;;;5106595;28;20035;-79
2023/07/25 05:38:01;;;;;;;38.47;36.50;;;15.10;99.90;;;;;;5106084;28;20056;-82
2023/07/25 05:40:27;;;;;;;35.65;33.72;;;15.00;99.90;;;;;;5106605;28;20043;-78
2023/07/25 05:42:54;;;;;;;43.40;40.90;;;15.00;99.90;;;;;;5086135;28;20028;-80
2023/07/25 05:45:20;;;;;;;37.03;34.65;;;15.00;99.90;;;;;;5105208;28;20028;-79
2023/07/25 05:47:46;;;;;;;36.13;34.25;;;14.90;99.90;;;;;;5089051;28;20065;-81
2023/07/25 05:50:13;;;;;;;33.40;31.67;;;14.90;99.90;;;;;;5109819;28;20051;-79
2023/07/25 05:52:39;;;;;;;37.55;35.65;;;14.90;99.90;;;;;;5102969;28;20046;-80
2023/07/25 05:55:06;;;;;;;58.03;54.58;;;14.90;99.90;;;;;;5107118;28;20464;-79
2023/07/25 05:57:31;;;;;;;38.28;36.53;;;14.80;99.90;;;;;;5102078;28;20043;-78
2023/07/25 05:59:57;;;;;;;35.35;33.60;;;14.80;99.90;;;;;;5088243;28;20046;-79
2023/07/25 06:02:23;;;;;;;37.78;35.72;;;14.80;99.90;;;;;;5085925;28;20039;-79
2023/07/25 06:04:48;;;;;;;34.25;32.70;;;14.80;99.90;;;;;;5088286;28;20028;-77
2023/07/25 06:07:15;;;;;;;35.45;33.55;;;14.80;99.90;;;;;;5103719;28;20085;-78
2023/07/25 06:09:41;;;;;;;35.72;33.92;;;14.90;99.90;;;;;;5105823;28;20028;-78
2023/07/25 06:12:08;;;;;;;38.10;36.20;;;14.80;99.90;;;;;;5106899;28;20038;-78
2023/07/25 06:14:34;;;;;;;36.40;34.47;;;14.80;99.90;;;;;;5105961;28;20031;-78
2023/07/25 06:17:00;;;;;;;34.10;32.47;;;14.90;99.90;;;;;;5106402;28;20031;-78
2023/07/25 06:19:26;;;;;;;41.95;40.05;;;14.90;99.90;;;;;;5105438;28;20118;-77
2023/07/25 06:21:51;;;;;;;36.92;35.13;;;14.90;99.90;;;;;;5104358;28;20050;-78
2023/07/25 06:24:17;;;;;;;38.38;36.70;;;15.00;99.90;;;;;;5087613;28;20429;-78
2023/07/25 06:26:43;;;;;;;42.17;40.25;;;15.00;99.90;;;;;;5098167;28;20099;-78
2023/07/25 06:29:08;;;;;;;40.75;38.75;;;15.00;99.90;;;;;;5099686;28;20035;-77
2023/07/25 06:31:35;;;;;;;56.05;51.78;;;15.10;99.90;;;;;;5100977;28;20077;-78
2023/07/25 06:34:01;;;;;;;66.10;60.92;;;15.10;99.90;;;;;;5104563;28;20061;-78
2023/07/25 06:36:26;;;;;;;71.40;66.28;;;15.30;99.90;;;;;;5087540;28;20039;-77
2023/07/25 06:38:52;;;;;;;45.72;43.33;;;15.30;99.90;;;;;;5087312;28;20109;-78
2023/07/25 06:41:17;;;;;;;37.58;35.78;;;15.40;99.90;;;;;;5111135;28;20049;-77
2023/07/25 06:43:43;;;;;;;41.30;39.50;;;15.50;99.90;;;;;;5103556;28;20038;-76
2023/07/25 06:46:09;;;;;;;50.30;48.03;;;15.60;99.90;;;;;;5104044;28;20778;-76
2023/07/25 06:48:35;;;;;;;25.77;24.27;;;15.60;99.90;;;;;;5108716;28;20055;-78
2023/07/25 06:51:01;;;;;;;36.80;34.72;;;15.40;99.90;;;;;;5107318;28;20039;-78
2023/07/25 06:53:26;;;;;;;23.38;22.27;;;15.50;99.90;;;;;;5111840;28;20031;-78
2023/07/25 06:55:52;;;;;;;21.95;20.50;;;15.60;99.90;;;;;;5074299;28;20073;-78
2023/07/25 06:58:18;;;;;;;21.63;20.65;;;15.70;99.90;;;;;;5108955;27;20108;-78
2023/07/25 07:00:46;;;;;;;20.77;19.52;;;15.80;99.90;;;;;;5073017;28;20089;-79
2023/07/25 07:03:13;;;;;;;25.77;24.63;;;15.80;99.90;;;;;;5108565;28;20126;-76
2023/07/25 07:05:38;;;;;;;17.90;17.10;;;15.60;99.90;;;;;;5104552;28;20031;-77
2023/07/25 07:08:04;;;;;;;18.90;18.05;;;15.70;99.90;;;;;;5091337;28;20024;-77
2023/07/25 07:10:32;;;;;;;58.03;47.92;;;15.40;99.90;;;;;;5088959;28;20116;-76
2023/07/25 07:12:57;;;;;;;18.85;18.05;;;15.20;99.90;;;;;;5089524;28;20036;-75
2023/07/25 07:15:24;;;;;;;24.38;23.35;;;15.40;99.90;;;;;;5109558;28;20027;-79
2023/07/25 07:17:53;;;;;;;46.38;44.25;;;15.30;99.90;;;;;;5073903;28;20039;-77
2023/07/25 07:20:19;;;;;;;45.30;43.55;;;15.50;99.90;;;;;;5091626;28;20032;-76
2023/07/25 07:22:45;;;;;;;42.28;40.53;;;16.60;99.90;;;;;;5104089;28;20057;-78
2023/07/25 07:25:11;;;;;;;42.28;40.65;;;16.60;99.90;;;;;;5107974;28;20381;-81
2023/07/25 07:27:36;;;;;;;46.10;44.22;;;16.60;99.90;;;;;;5105984;28;20074;-81
2023/07/25 07:30:03;;;;;;;47.72;45.92;;;16.70;99.90;;;;;;5092741;28;20071;-79
2023/07/25 07:32:29;;;;;;;45.92;44.22;;;16.70;99.90;;;;;;5091678;28;20060;-80
2023/07/25 07:34:54;;;;;;;53.67;50.97;;;16.70;99.90;;;;;;5107301;28;20424;-79
2023/07/25 07:37:20;;;;;;;50.33;47.63;;;16.70;99.90;;;;;;5089423;28;20073;-78
2023/07/25 07:39:46;;;;;;;47.58;45.67;;;16.70;99.90;;;;;;5106586;28;20085;-79
2023/07/25 07:42:11;;;;;;;34.85;33.35;;;16.80;99.90;;;;;;5086270;28;20080;-79
2023/07/25 07:44:37;;;;;;;49.00;47.15;;;16.70;99.90;;;;;;5092556;28;20139;-78
2023/07/25 07:47:06;;;;;;;43.35;41.63;;;16.70;99.90;;;;;;5105815;28;20024;-80
2023/07/25 07:49:33;;;;;;;49.67;47.72;;;16.60;99.90;;;;;;5106914;28;20032;-80
2023/07/25 07:51:59;;;;;;;47.40;45.53;;;16.60;99.90;;;;;;5106440;28;20031;-78
2023/07/25 07:54:25;;;;;;;45.10;43.30;;;16.60;99.90;;;;;;5108771;28;20406;-79
2023/07/25 07:56:50;;;;;;;51.38;49.45;;;16.60;99.90;;;;;;5090856;28;20039;-79
2023/07/25 07:59:16;;;;;;;56.40;53.95;;;16.70;99.90;;;;;;5106042;28;20031;-80
2023/07/25 08:01:41;;;;;;;44.03;42.28;;;16.70;99.90;;;;;;5107281;28;20028;-79
2023/07/25 08:04:08;;;;;;;39.65;37.95;;;16.80;99.90;;;;;;5105467;28;20140;-79
2023/07/25 08:06:33;;;;;;;36.85;35.13;;;17.00;99.90;;;;;;5089898;28;20027;-78
2023/07/25 08:08:59;;;;;;;54.67;51.08;;;17.20;99.90;;;;;;5107887;28;20781;-76
2023/07/25 08:11:25;;;;;;;91.20;84.50;;;17.40;99.90;;;;;;5103410;28;20097;-78
2023/07/25 08:13:51;;;;;;;46.55;44.65;;;17.30;99.90;;;;;;5089851;28;20504;-79
2023/07/25 08:16:16;;;;;;;48.75;46.70;;;17.40;99.90;;;;;;5108894;28;20056;-78
2023/07/25 08:18:43;;;;;;;50.58;48.40;;;17.40;99.90;;;;;;5107802;28;20032;-87
2023/07/25 08:21:09;;;;;;;47.90;45.75;;;17.30;99.90;;;;;;5073582;28;20028;-78
2023/07/25 08:23:34;;;;;;;110.30;100.85;;;17.30;99.90;;;;;;5107329;28;20521;-77
2023/07/25 08:26:00;;;;;;;47.05;45.10;;;17.40;99.90;;;;;;5106343;28;20028;-77
2023/07/25 08:28:26;;;;;;;52.83;50.63;;;17.50;99.90;;;;;;5106425;28;20046;-79
2023/07/25 08:31:02;;;;;;;50.95;48.85;;;17.70;99.90;;;;;;5108997;28;20031;-79
2023/07/25 08:33:33;;;;;;;41.38;39.47;;;17.70;99.90;;;;;;5100867;28;20477;-77
2023/07/25 08:35:59;;;;;;;38.38;36.70;;;17.70;99.90;;;;;;5091160;28;20034;-77
2023/07/25 08:38:26;;;;;;;25.58;24.27;;;18.00;99.90;;;;;;5086577;28;20047;-77
2023/07/25 08:41:03;;;;;;;29.48;27.83;;;17.90;99.90;;;;;;5104931;27;20118;-77
2023/07/25 08:43:30;;;;;;;24.77;23.52;;;17.90;99.90;;;;;;5109097;28;20020;-78
2023/07/25 08:45:58;;;;;;;51.80;47.00;;;18.00;99.90;;;;;;5085809;28;20028;-78
2023/07/25 08:48:26;;;;;;;26.80;25.42;;;17.80;99.90;;;;;;5103320;28;20794;-75
2023/07/25 08:50:55;;;;;;;25.67;24.23;;;17.70;99.90;;;;;;5085874;28;20420;-78
2023/07/25 08:53:23;;;;;;;24.85;23.10;;;17.40;99.90;;;;;;5083924;28;20408;-77
2023/07/25 08:55:51;;;;;;;27.75;26.25;;;17.20;99.90;;;;;;5105976;28;20036;-77
2023/07/25 08:58:17;;;;;;;31.08;29.17;;;17.30;99.90;;;;;;5100366;28;20094;-77
2023/07/25 09:00:44;;;;;;;25.90;24.42;;;17.30;99.90;;;;;;5086907;28;20495;-78
2023/07/25 09:03:12;;;;;;;30.23;28.52;;;17.20;99.90;;;;;;5102222;28;20119;-78
2023/07/25 09:05:38;;;;;;;33.33;31.73;;;17.20;99.90;;;;;;5086176;28;20032;-77
2023/07/25 09:08:05;;;;;;;32.90;31.15;;;17.30;99.90;;;;;;5107079;28;20032;-80
2023/07/25 09:10:31;;;;;;;40.65;38.70;;;18.30;99.90;;;;;;5102788;28;20082;-79
2023/07/25 09:12:56;;;;;;;36.60;34.90;;;18.50;99.90;;;;;;5072569;28;20039;-79
2023/07/25 09:15:23;;;;;;;35.58;33.67;;;18.60;99.90;;;;;;5104873;28;20032;-81
2023/07/25 09:17:52;;;;;;;27.73;26.42;;;18.70;99.90;;;;;;5090191;28;20118;-78
2023/07/25 09:20:17;;;;;;;40.10;38.13;;;18.60;99.90;;;;;;5087499;28;20024;-79
2023/07/25 09:22:47;;;;;;;37.20;35.50;;;18.40;99.90;;;;;;5074708;28;20397;-83
2023/07/25 09:25:15;;;;;;;40.80;38.97;;;18.20;99.90;;;;;;5102992;28;20133;-79
2023/07/25 09:27:45;;;;;;;44.30;41.42;;;18.30;99.90;;;;;;5101915;28;20042;-80
2023/07/25 09:30:12;;;;;;;47.05;43.97;;;18.20;99.90;;;;;;5102978;28;20031;-81
2023/07/25 09:56:42;;;;;;;35.28;33.05;;;17.00;99.90;;;;;;5087131;28;20030;-83
2023/07/25 09:59:07;;;;;;;55.53;53.13;;;16.90;99.90;;;;;;5068647;28;20063;-83
2023/07/25 10:01:35;;;;;;;37.60;35.85;;;16.90;99.90;;;;;;5086430;28;20485;-82
2023/07/25 10:04:01;;;;;;;48.53;46.10;;;17.00;99.90;;;;;;5085375;28;20063;-80
2023/07/25 10:06:27;;;;;;;56.22;47.00;;;16.40;99.90;;;;;;5084617;28;20051;-82
2023/07/25 10:08:53;;;;;;;66.93;61.22;;;16.50;99.90;;;;;;5088085;28;20028;-83
2023/07/25 10:11:20;;;;;;;95.80;90.35;;;16.90;99.90;;;;;;5090187;28;20521;-83
2023/07/25 10:13:50;;;;;;;50.40;47.75;;;17.00;99.90;;;;;;5091641;28;20046;-81
2023/07/25 10:16:18;;;;;;;46.60;44.03;;;17.00;99.90;;;;;;5072318;28;20066;-83
2023/07/25 10:18:54;;;;;;;49.22;46.70;;;17.20;99.90;;;;;;5091204;28;20036;-84
2023/07/25 10:21:26;;;;;;;41.13;39.20;;;17.00;99.90;;;;;;5073792;28;20077;-84
2023/07/25 10:23:57;;;;;;;40.30;38.38;;;16.90;99.90;;;;;;5093008;28;20111;-79
2023/07/25 10:26:23;;;;;;;40.25;38.10;;;17.10;99.90;;;;;;5056819;28;20131;-82
2023/07/25 10:28:49;;;;;;;47.83;45.65;;;17.10;99.90;;;;;;5092185;28;20024;-80
2023/07/25 10:31:33;;;;;;;58.63;56.17;;;17.00;99.90;;;;;;5090466;28;20034;-80
2023/07/25 10:33:59;;;;;;;43.03;41.03;;;17.10;99.90;;;;;;5074854;28;20478;-83
2023/07/25 10:36:26;;;;;;;56.15;53.78;;;17.10;99.90;;;;;;5091706;28;20028;-81
2023/07/25 10:39:06;;;;;;;52.28;49.75;;;17.60;99.90;;;;;;5090446;28;20050;-80
2023/07/25 10:41:32;;;;;;;46.88;44.85;;;17.90;99.90;;;;;;5074983;28;20502;-81
2023/07/25 10:44:01;;;;;;;46.03;44.03;;;18.10;99.90;;;;;;5091168;28;20047;-83
2023/07/25 10:46:29;;;;;;;45.95;43.92;;;18.30;99.90;;;;;;5091864;28;20028;-79
2023/07/25 10:48:57;;;;;;;59.55;56.15;;;18.40;99.90;;;;;;5089027;28;20032;-80
2023/07/25 10:51:43;;;;;;;50.20;46.55;;;18.50;99.90;;;;;;5091807;28;20111;-81
2023/07/25 10:54:14;;;;;;;48.78;46.78;;;18.40;99.90;;;;;;5089668;28;20047;-81
2023/07/25 10:56:40;;;;;;;;;;;18.60;99.90;;;;;;5090749;28;20509;-77
2023/07/25 10:59:07;;;;;;;41.00;39.22;;;18.80;99.90;;;;;;5087051;28;19923;-79
2023/07/25 11:01:38;;;;;;;49.75;47.70;;;19.00;99.90;;;;;;5087445;28;20124;-81
2023/07/25 11:04:25;;;;;;;20.38;19.25;;;19.10;99.90;;;;;;5091048;28;20378;-77
2023/07/25 11:06:53;;;;;;;19.38;18.25;;;18.90;99.90;;;;;;5088843;28;20085;-76
2023/07/25 11:09:20;;;;;;;18.73;17.55;;;19.10;99.90;;;;;;5084721;28;20024;-76
2023/07/25 11:11:48;;;;;;;23.73;21.70;;;18.70;99.90;;;;;;5086964;28;20040;-76
2023/07/25 11:14:17;;;;;;;21.27;20.05;;;18.70;99.90;;;;;;5086270;28;20032;-76
2023/07/25 11:16:44;;;;;;;18.83;17.83;;;19.00;99.90;;;;;;5089862;28;20035;-76
2023/07/25 11:19:10;;;;;;;20.00;18.85;;;19.10;99.90;;;;;;5086252;28;20549;-76
2023/07/25 11:21:38;;;;;;;31.67;28.63;;;19.30;99.90;;;;;;5087245;28;20434;-75
2023/07/25 11:24:06;;;;;;;44.72;40.35;;;19.00;99.90;;;;;;5089311;28;20020;-75
2023/07/25 11:26:31;;;;;;;17.45;16.55;;;19.60;99.90;;;;;;5087434;28;20055;-76
2023/07/25 11:29:03;;;;;;;16.48;15.68;;;21.30;99.90;;;;;;5069554;28;20165;-75
2023/07/25 11:31:29;;;;;;;57.13;51.08;;;22.00;99.90;;;;;;5084290;28;20045;-75
2023/07/25 11:33:55;;;;;;;17.27;16.25;;;22.00;99.90;;;;;;5086549;28;20563;-75
2023/07/25 11:36:21;;;;;;;17.40;16.50;;;23.00;73.70;;;;;;5072481;28;20505;-75
2023/07/25 11:38:47;;;;;;;18.15;17.25;;;23.80;69.70;;;;;;5086484;28;20123;-75
2023/07/25 11:41:13;;;;;;;73.22;67.43;;;24.00;65.90;;;;;;5087246;28;20209;-77
2023/07/25 11:43:39;;;;;;;18.20;17.30;;;24.60;61.60;;;;;;5083452;28;20071;-78
2023/07/25 11:46:05;;;;;;;23.55;22.55;;;24.70;61.70;;;;;;5082732;28;20036;-78
2023/07/25 11:48:32;;;;;;;19.48;18.38;;;23.90;60.70;;;;;;5088002;28;20031;-78
2023/07/25 11:50:58;;;;;;;19.63;18.17;;;24.40;59.00;;;;;;5070231;28;20452;-78
2023/07/25 11:53:28;;;;;;;19.92;19.02;;;24.70;55.50;;;;;;5085324;28;20026;-77
2023/07/25 11:55:55;;;;;;;;;;;25.60;56.00;;;;;;5079890;28;20555;-78
2023/07/25 11:58:22;;;;;;;19.83;18.92;;;25.20;53.00;;;;;;5107788;28;19911;-78
2023/07/25 12:00:54;;;;;;;26.38;25.27;;;26.00;51.20;;;;;;5106467;28;20024;-78
2023/07/25 12:03:21;;;;;;;28.88;27.45;;;25.60;53.40;;;;;;5108682;27;20473;-78
2023/07/25 12:05:58;;;;;;;74.68;71.43;;;25.60;48.20;;;;;;5106157;28;20036;-77
2023/07/25 12:08:37;;;;;;;50.25;48.15;;;25.00;50.40;;;;;;5106481;28;20708;-78
2023/07/25 12:11:04;;;;;;;94.45;88.50;;;24.30;49.80;;;;;;5106366;28;20051;-77
2023/07/25 12:13:31;;;;;;;72.13;69.47;;;24.60;49.20;;;;;;5091173;28;20038;-76
2023/07/25 12:15:57;;;;;;;53.15;50.53;;;24.00;50.00;;;;;;5107082;28;20547;-77
2023/07/25 12:18:31;;;;;;;37.05;35.45;;;24.20;48.90;;;;;;5086125;28;20032;-78
2023/07/25 12:20:59;;;;;;;48.47;46.42;;;25.40;49.40;;;;;;5107828;28;20032;-77
2023/07/25 12:23:38;;;;;;;102.05;98.05;;;26.40;45.80;;;;;;5089061;28;20089;-78
2023/07/25 12:26:04;;;;;;;124.95;120.53;;;25.70;45.20;;;;;;5103565;28;20503;-76
2023/07/25 12:28:44;;;;;;;52.17;49.88;;;26.10;44.10;;;;;;5086026;28;20081;-76
2023/07/25 12:31:10;;;;;;;131.82;126.53;;;26.80;43.70;;;;;;5104285;28;20063;-73
2023/07/25 12:33:36;;;;;;;100.88;97.20;;;25.40;44.50;;;;;;5101618;28;20132;-73
2023/07/25 12:36:02;;;;;;;71.47;68.65;;;24.20;44.70;;;;;;5105904;28;20545;-72
2023/07/25 12:38:28;;;;;;;71.78;69.05;;;23.30;49.90;;;;;;5100808;27;20035;-72
2023/07/25 12:40:54;;;;;;;71.63;69.03;;;23.00;51.60;;;;;;5104050;28;20432;-73
2023/07/25 12:43:20;;;;;;;78.25;75.22;;;23.00;48.10;;;;;;5102934;27;20387;-73
2023/07/25 12:45:46;;;;;;;128.45;122.65;;;24.20;47.30;;;;;;5105334;28;20077;-73
2023/07/25 12:48:12;;;;;;;73.75;71.07;;;25.20;42.20;;;;;;5106627;28;20031;-74
2023/07/25 12:50:39;;;;;;;89.18;85.88;;;25.60;43.50;;;;;;5107517;28;20389;-74